createdAt,value
2023-02-26T00:00:15.747Z,1.93
2023-02-26T00:03:03.149Z,6.17
2023-02-26T00:05:51.281Z,2.23
2023-02-26T00:08:38.640Z,4.60
2023-02-26T00:11:26.166Z,2.77
2023-02-26T00:14:14.925Z,2.10
2023-02-26T00:17:08.628Z,2.70
2023-02-26T00:19:56.282Z,1.77
2023-02-26T00:22:44.209Z,3.80
2023-02-26T00:25:31.590Z,3.10
2023-02-26T00:28:19.553Z,1.93
2023-02-26T00:31:07.449Z,3.17
2023-02-26T00:33:55.454Z,5.30
2023-02-26T00:36:46.565Z,1.60
2023-02-26T00:39:33.920Z,1.77
2023-02-26T00:42:21.512Z,1.17
2023-02-26T00:45:09.224Z,1.13
2023-02-26T00:48:02.565Z,2.47
2023-02-26T00:51:00.038Z,1.30
2023-02-26T00:53:50.534Z,1.53
2023-02-26T00:56:37.927Z,2.43
2023-02-26T00:59:25.403Z,1.77
2023-02-26T01:02:12.761Z,1.60
2023-02-26T01:05:00.970Z,2.87
2023-02-26T01:08:06.784Z,2.30
2023-02-26T01:10:54.253Z,3.17
2023-02-26T01:13:41.685Z,3.60
2023-02-26T01:16:31.397Z,1.93
2023-02-26T01:19:25.634Z,1.57
2023-02-26T01:22:22.900Z,1.40
2023-02-26T01:25:12.266Z,5.33
2023-02-26T01:27:59.839Z,2.30
2023-02-26T01:30:47.435Z,0.67
2023-02-26T01:33:42.124Z,1.10
2023-02-26T01:36:33.233Z,2.60
2023-02-26T01:39:26.844Z,1.63
2023-02-26T01:42:16.724Z,3.27
2023-02-26T01:45:10.430Z,2.93
2023-02-26T01:48:11.891Z,2.57
2023-02-26T01:50:59.273Z,1.20
2023-02-26T01:53:46.651Z,3.57
2023-02-26T01:56:34.213Z,2.93
2023-02-26T01:59:24.554Z,1.73
2023-02-26T02:02:13.193Z,2.30
2023-02-26T02:05:05.330Z,2.13
2023-02-26T02:07:52.717Z,1.70
2023-02-26T02:10:44.632Z,1.97
2023-02-26T02:13:38.331Z,3.30
2023-02-26T02:16:26.131Z,3.07
2023-02-26T02:19:29.368Z,1.27
2023-02-26T02:22:19.827Z,1.23
2023-02-26T02:25:16.338Z,0.93
2023-02-26T02:28:07.271Z,2.33
2023-02-26T02:31:13.790Z,2.80
2023-02-26T02:34:05.487Z,1.97
2023-02-26T02:37:02.076Z,2.67
2023-02-26T02:40:25.161Z,0.60
2023-02-26T02:43:21.206Z,2.63
2023-02-26T02:46:10.863Z,2.07
2023-02-26T02:49:19.353Z,3.03
2023-02-26T02:52:10.812Z,1.67
2023-02-26T02:55:05.711Z,3.43
2023-02-26T02:57:56.621Z,1.63
2023-02-26T03:00:49.474Z,3.03
2023-02-26T03:03:36.851Z,3.57
2023-02-26T03:06:24.694Z,2.50
2023-02-26T03:09:12.087Z,1.10
2023-02-26T03:11:59.582Z,2.60
2023-02-26T03:14:46.978Z,3.50
2023-02-26T03:17:37.076Z,1.03
2023-02-26T03:20:32.585Z,1.23
2023-02-26T03:23:31.763Z,0.83
2023-02-26T03:26:22.354Z,4.50
2023-02-26T03:29:23.574Z,1.90
2023-02-26T03:32:20.216Z,2.17
2023-02-26T03:35:14.231Z,1.77
2023-02-26T03:38:04.082Z,1.40
2023-02-26T03:40:54.936Z,1.80
2023-02-26T03:44:00.352Z,3.73
2023-02-26T03:46:50.562Z,1.70
2023-02-26T03:49:44.508Z,2.20
2023-02-26T03:52:34.910Z,1.80
2023-02-26T03:55:25.565Z,3.23
2023-02-26T03:58:13.009Z,1.07
2023-02-26T04:01:03.774Z,1.80
2023-02-26T04:03:55.452Z,1.10
2023-02-26T04:06:43.053Z,1.43
2023-02-26T04:09:30.550Z,0.83
2023-02-26T04:12:22.099Z,3.57
2023-02-26T04:15:09.777Z,1.33
2023-02-26T04:17:57.177Z,1.40
2023-02-26T04:20:44.578Z,3.23
2023-02-26T04:23:31.971Z,1.67
2023-02-26T04:26:19.380Z,4.43
2023-02-26T04:29:06.768Z,1.87
2023-02-26T04:31:54.583Z,3.20
2023-02-26T04:34:42.051Z,2.27
2023-02-26T04:37:29.481Z,5.83
2023-02-26T04:40:16.904Z,1.03
2023-02-26T04:43:04.268Z,0.83
2023-02-26T04:45:51.647Z,3.37
2023-02-26T04:48:39.075Z,2.53
2023-02-26T04:51:26.488Z,1.03
2023-02-26T04:54:13.826Z,3.97
2023-02-26T04:57:01.877Z,1.93
2023-02-26T04:59:49.239Z,1.37
2023-02-26T05:02:36.658Z,3.20
2023-02-26T05:05:24.095Z,1.77
2023-02-26T05:08:11.527Z,1.50
2023-02-26T05:10:58.908Z,3.17
2023-02-26T05:13:46.305Z,1.87
2023-02-26T05:16:33.749Z,3.77
2023-02-26T05:19:21.165Z,3.17
2023-02-26T05:22:08.664Z,1.13
2023-02-26T05:24:56.003Z,1.17
2023-02-26T05:27:43.414Z,3.77
2023-02-26T05:30:30.792Z,0.80
2023-02-26T05:33:19.274Z,1.13
2023-02-26T05:36:07.112Z,2.17
2023-02-26T05:38:54.485Z,1.83
2023-02-26T05:41:41.863Z,1.17
2023-02-26T05:44:29.203Z,1.67
2023-02-26T05:47:16.862Z,0.73
2023-02-26T05:50:05.001Z,1.30
2023-02-26T05:52:52.335Z,3.10
2023-02-26T05:55:39.692Z,2.33
2023-02-26T05:58:27.026Z,1.00
2023-02-26T06:01:14.589Z,1.23
2023-02-26T06:04:01.942Z,1.03
2023-02-26T06:06:49.356Z,0.30
2023-02-26T06:09:36.686Z,2.03
2023-02-26T06:12:24.032Z,1.47
2023-02-26T06:15:11.596Z,0.80
2023-02-26T06:17:59.038Z,0.80
2023-02-26T06:20:46.366Z,2.13
2023-02-26T06:23:33.697Z,2.00
2023-02-26T06:26:23.450Z,2.83
2023-02-26T06:29:11.226Z,1.30
2023-02-26T06:31:58.708Z,2.50
2023-02-26T06:34:46.098Z,0.80
2023-02-26T06:37:33.472Z,2.63
2023-02-26T06:40:20.828Z,1.60
2023-02-26T06:43:08.587Z,1.13
2023-02-26T06:45:58.145Z,0.87
2023-02-26T06:48:45.663Z,1.83
2023-02-26T06:51:33.060Z,3.93
2023-02-26T06:54:20.397Z,1.13
2023-02-26T06:57:07.750Z,2.70
2023-02-26T06:59:55.172Z,1.57
2023-02-26T07:02:42.617Z,1.20
2023-02-26T07:05:30.094Z,1.00
2023-02-26T07:08:17.504Z,1.30
2023-02-26T07:11:05.008Z,0.73
2023-02-26T07:13:52.445Z,1.63
2023-02-26T07:16:39.830Z,2.07
2023-02-26T07:19:27.295Z,2.53
2023-02-26T07:22:15.686Z,4.97
2023-02-26T07:25:03.069Z,4.00
2023-02-26T07:27:50.652Z,1.00
2023-02-26T07:30:38.157Z,0.80
2023-02-26T07:33:26.516Z,1.80
2023-02-26T07:36:13.914Z,4.03
2023-02-26T07:39:01.862Z,1.13
2023-02-26T07:41:49.241Z,1.50
2023-02-26T07:44:36.798Z,2.10
2023-02-26T07:47:24.183Z,1.37
2023-02-26T07:50:11.854Z,1.13
2023-02-26T07:52:59.174Z,3.70
2023-02-26T07:55:46.580Z,2.43
2023-02-26T07:58:33.960Z,3.40
2023-02-26T08:01:21.449Z,2.30
2023-02-26T08:04:09.011Z,1.60
2023-02-26T08:06:57.243Z,1.23
2023-02-26T08:09:44.661Z,1.00
2023-02-26T08:12:32.985Z,1.87
2023-02-26T08:15:20.430Z,2.97
2023-02-26T08:18:07.811Z,1.80
2023-02-26T08:20:55.384Z,1.87
2023-02-26T08:23:42.756Z,1.90
2023-02-26T08:26:30.213Z,2.27
2023-02-26T08:29:17.779Z,2.93
2023-02-26T08:32:05.266Z,4.57
2023-02-26T08:34:52.699Z,1.83
2023-02-26T08:37:40.075Z,3.90
2023-02-26T08:40:27.412Z,2.33
2023-02-26T08:43:14.756Z,1.23
2023-02-26T08:46:02.118Z,1.53
2023-02-26T08:48:49.498Z,0.67
2023-02-26T08:51:36.856Z,2.70
2023-02-26T08:54:24.279Z,2.13
2023-02-26T08:57:11.687Z,0.90
2023-02-26T08:59:59.178Z,1.77
2023-02-26T09:02:46.719Z,1.00
2023-02-26T09:05:34.107Z,2.23
2023-02-26T09:08:21.517Z,1.37
2023-02-26T09:11:10.096Z,1.07
2023-02-26T09:13:59.051Z,1.17
2023-02-26T09:16:46.548Z,1.40
2023-02-26T09:19:34.081Z,0.97
2023-02-26T09:22:21.527Z,1.70
2023-02-26T09:25:09.093Z,1.17
2023-02-26T09:27:58.439Z,2.63
2023-02-26T09:30:46.181Z,1.07
2023-02-26T09:33:34.018Z,2.45
2023-02-26T09:36:21.483Z,1.07
2023-02-26T09:39:09.004Z,3.40
2023-02-26T09:41:58.310Z,1.03
2023-02-26T09:44:45.878Z,1.83
2023-02-26T09:47:46.660Z,1.57
2023-02-26T09:50:46.469Z,1.23
2023-02-26T09:53:35.477Z,0.77
2023-02-26T09:56:25.844Z,1.43
2023-02-26T09:59:13.477Z,0.80
2023-02-26T10:02:07.306Z,1.00
2023-02-26T10:05:01.933Z,2.00
2023-02-26T10:07:58.484Z,0.70
2023-02-26T10:10:48.908Z,2.37
2023-02-26T10:13:57.714Z,0.97
2023-02-26T10:16:48.940Z,0.70
2023-02-26T10:19:39.136Z,1.53
2023-02-26T10:22:29.194Z,0.93
2023-02-26T10:25:20.452Z,1.03
2023-02-26T10:28:18.401Z,0.80
2023-02-26T10:31:32.407Z,1.00
2023-02-26T10:34:30.925Z,1.30
2023-02-26T10:37:24.791Z,0.70
2023-02-26T10:40:18.813Z,1.77
2023-02-26T10:43:06.145Z,1.87
2023-02-26T10:46:05.590Z,1.87
2023-02-26T10:49:14.295Z,1.97
2023-02-26T10:52:06.410Z,1.00
2023-02-26T10:55:03.010Z,1.37
2023-02-26T10:58:16.404Z,1.00
2023-02-26T11:01:08.168Z,1.90
2023-02-26T11:03:57.076Z,1.77
2023-02-26T11:07:00.774Z,2.27
2023-02-26T11:09:48.277Z,2.17
2023-02-26T11:12:37.597Z,2.43
2023-02-26T11:15:27.208Z,1.70
2023-02-26T11:18:17.625Z,1.50
2023-02-26T11:21:06.317Z,2.20
2023-02-26T11:23:56.989Z,0.97
2023-02-26T11:26:46.911Z,1.57
2023-02-26T11:29:47.238Z,0.67
2023-02-26T11:32:35.962Z,2.10
2023-02-26T11:35:24.718Z,2.37
2023-02-26T11:38:17.401Z,3.97
2023-02-26T11:41:05.855Z,2.43
2023-02-26T11:44:02.955Z,2.90
2023-02-26T11:46:54.175Z,1.80
2023-02-26T11:49:44.030Z,1.60
2023-02-26T11:52:31.593Z,1.40
2023-02-26T11:55:19.089Z,2.60
2023-02-26T11:58:15.488Z,1.47
2023-02-26T12:01:03.550Z,2.13
2023-02-26T12:03:53.117Z,2.97
2023-02-26T12:06:40.799Z,2.33
2023-02-26T12:09:28.223Z,1.87
2023-02-26T12:12:24.716Z,1.67
2023-02-26T12:15:18.009Z,1.30
2023-02-26T12:18:24.253Z,2.83
2023-02-26T12:21:15.021Z,2.73
2023-02-26T12:24:02.647Z,2.70
2023-02-26T12:26:49.951Z,3.87
2023-02-26T12:29:57.579Z,3.57
2023-02-26T12:33:02.475Z,3.63
2023-02-26T12:35:59.205Z,3.83
2023-02-26T12:38:49.613Z,3.23
2023-02-26T12:41:40.504Z,5.87
2023-02-26T12:44:48.178Z,2.07
2023-02-26T12:48:04.900Z,2.60
2023-02-26T12:51:01.179Z,1.23
2023-02-26T12:54:04.883Z,3.73
2023-02-26T12:57:11.143Z,4.50
2023-02-26T13:00:18.752Z,1.57
2023-02-26T13:03:08.703Z,2.40
2023-02-26T13:06:16.421Z,2.73
2023-02-26T13:09:09.605Z,2.13
2023-02-26T13:12:23.115Z,2.47
2023-02-26T13:15:33.236Z,3.67
2023-02-26T13:18:20.577Z,1.33
2023-02-26T13:21:14.213Z,2.87
2023-02-26T13:24:05.429Z,1.87
2023-02-26T13:26:53.873Z,1.83
2023-02-26T13:29:47.869Z,1.50
2023-02-26T13:32:35.927Z,3.07
2023-02-26T13:35:38.365Z,3.40
2023-02-26T13:38:44.837Z,4.20
2023-02-26T13:41:47.368Z,3.60
2023-02-26T13:44:41.554Z,5.63
2023-02-26T13:47:42.708Z,1.70
2023-02-26T13:50:46.094Z,5.30
2023-02-26T13:53:33.694Z,1.77
2023-02-26T13:56:43.315Z,3.17
2023-02-26T13:59:36.350Z,2.47
2023-02-26T14:02:38.207Z,4.00
2023-02-26T14:05:36.548Z,2.30
2023-02-26T14:08:28.416Z,4.70
2023-02-26T14:11:18.917Z,1.80
2023-02-26T14:14:15.239Z,2.87
2023-02-26T14:17:08.826Z,2.70
2023-02-26T14:19:56.184Z,4.50
2023-02-26T14:22:44.157Z,2.47
2023-02-26T14:25:35.788Z,5.33
2023-02-26T14:28:26.677Z,2.87
2023-02-26T14:31:15.900Z,2.30
2023-02-26T14:34:03.270Z,3.10
2023-02-26T14:36:54.979Z,5.10
2023-02-26T14:39:53.228Z,4.77
2023-02-26T14:42:46.594Z,1.63
2023-02-26T14:45:42.349Z,2.10
2023-02-26T14:48:30.151Z,2.07
2023-02-26T14:51:23.434Z,2.83
2023-02-26T14:54:29.279Z,1.53
2023-02-26T14:57:37.685Z,2.03
2023-02-26T15:00:42.702Z,2.13
2023-02-26T15:03:38.874Z,4.27
2023-02-26T15:06:42.011Z,1.60
2023-02-26T15:09:47.767Z,2.00
2023-02-26T15:12:35.133Z,2.63
2023-02-26T15:15:22.491Z,2.20
2023-02-26T15:18:15.897Z,7.17
2023-02-26T15:21:22.430Z,1.80
2023-02-26T15:24:11.873Z,3.13
2023-02-26T15:27:01.781Z,3.53
2023-02-26T15:29:51.756Z,3.97
2023-02-26T15:32:40.989Z,1.63
2023-02-26T15:35:29.428Z,2.73
2023-02-26T15:38:16.837Z,1.40
2023-02-26T15:41:04.466Z,1.10
2023-02-26T15:43:54.470Z,2.37
2023-02-26T15:46:45.153Z,1.33
2023-02-26T15:49:37.810Z,1.83
2023-02-26T15:52:26.825Z,1.53
2023-02-26T15:55:16.674Z,3.60
2023-02-26T15:58:05.889Z,2.27
2023-02-26T16:00:54.639Z,3.73
2023-02-26T16:03:42.670Z,3.13
2023-02-26T16:06:35.168Z,5.80
2023-02-26T16:09:30.742Z,2.77
2023-02-26T16:12:20.163Z,1.43
2023-02-26T16:15:12.020Z,2.00
2023-02-26T16:18:00.962Z,1.20
2023-02-26T16:20:49.564Z,3.83
2023-02-26T16:23:41.559Z,3.97
2023-02-26T16:26:33.442Z,3.47
2023-02-26T16:29:25.557Z,2.17
2023-02-26T16:32:13.639Z,3.17
2023-02-26T16:35:01.909Z,1.70
2023-02-26T16:37:52.498Z,3.53
2023-02-26T16:40:41.856Z,3.00
2023-02-26T16:43:33.423Z,1.37
2023-02-26T16:46:22.918Z,1.43
2023-02-26T16:49:12.926Z,6.37
2023-02-26T16:52:00.942Z,1.93
2023-02-26T16:54:55.001Z,2.23
2023-02-26T16:57:44.693Z,2.63
2023-02-26T17:00:32.604Z,4.30
2023-02-26T17:03:21.349Z,3.90
2023-02-26T17:06:11.545Z,1.47
2023-02-26T17:08:59.779Z,2.90
2023-02-26T17:11:48.747Z,4.63
2023-02-26T17:14:40.436Z,2.00
2023-02-26T17:17:27.963Z,2.87
2023-02-26T17:20:15.481Z,5.33
2023-02-26T17:23:03.433Z,2.40
2023-02-26T17:25:55.845Z,3.90
2023-02-26T17:28:43.694Z,16.10
2023-02-26T17:31:31.274Z,2.47
2023-02-26T17:34:19.293Z,3.03
2023-02-26T17:37:07.773Z,3.40
2023-02-26T17:39:55.225Z,6.03
2023-02-26T17:42:42.612Z,4.20
2023-02-26T17:45:30.154Z,3.97
2023-02-26T17:48:18.009Z,4.57
2023-02-26T17:51:05.597Z,6.23
2023-02-26T17:53:52.997Z,5.17
2023-02-26T17:56:42.381Z,15.07
2023-02-26T17:59:29.818Z,14.93
2023-02-26T18:02:18.547Z,21.20
2023-02-26T18:05:06.221Z,23.23
2023-02-26T18:07:53.970Z,20.83
2023-02-26T18:10:41.344Z,21.03
2023-02-26T18:13:29.322Z,19.50
2023-02-26T18:16:39.095Z,36.83
2023-02-26T18:19:27.583Z,40.37
2023-02-26T18:22:15.449Z,30.67
2023-02-26T18:25:02.868Z,27.50
2023-02-26T18:27:54.509Z,20.20
2023-02-26T18:30:44.099Z,21.63
2023-02-26T18:33:31.575Z,12.67
2023-02-26T18:36:29.782Z,13.97
2023-02-26T18:39:20.196Z,11.77
2023-02-26T18:42:07.670Z,14.40
2023-02-26T18:44:55.364Z,10.83
2023-02-26T18:47:42.759Z,8.63
2023-02-26T18:50:30.154Z,6.97
2023-02-26T18:53:22.956Z,6.47
2023-02-26T18:56:10.359Z,5.43
2023-02-26T18:58:57.745Z,4.33
2023-02-26T19:01:45.265Z,3.23
2023-02-26T19:04:32.702Z,3.80
2023-02-26T19:07:20.304Z,5.03
2023-02-26T19:10:09.382Z,3.23
2023-02-26T19:12:56.857Z,8.73
2023-02-26T19:15:44.268Z,4.40
2023-02-26T19:18:31.735Z,4.93
2023-02-26T19:21:19.196Z,4.53
2023-02-26T19:24:07.415Z,4.63
2023-02-26T19:26:56.005Z,3.37
2023-02-26T19:29:43.451Z,5.50
2023-02-26T19:32:31.133Z,4.00
2023-02-26T19:35:19.440Z,4.33
2023-02-26T19:38:06.902Z,7.00
2023-02-26T19:40:54.336Z,7.13
2023-02-26T19:43:41.695Z,14.37
2023-02-26T19:46:29.117Z,6.83
2023-02-26T19:49:16.684Z,7.87
2023-02-26T19:52:04.143Z,8.97
2023-02-26T19:54:51.573Z,4.47
2023-02-26T19:57:38.967Z,8.07
2023-02-26T20:00:26.358Z,5.80
2023-02-26T20:03:13.962Z,6.23
2023-02-26T20:06:01.838Z,4.90
2023-02-26T20:08:49.281Z,7.17
2023-02-26T20:11:38.098Z,6.90
2023-02-26T20:14:25.645Z,5.20
2023-02-26T20:17:13.061Z,6.73
2023-02-26T20:20:00.645Z,7.30
2023-02-26T20:22:48.198Z,10.33
2023-02-26T20:25:35.703Z,10.67
2023-02-26T20:28:23.251Z,8.80
2023-02-26T20:31:10.955Z,8.30
2023-02-26T20:33:58.558Z,9.00
2023-02-26T20:36:47.407Z,10.17
2023-02-26T20:39:34.828Z,8.60
2023-02-26T20:42:22.229Z,9.38
2023-02-26T20:45:09.748Z,5.13
2023-02-26T20:47:58.418Z,6.47
2023-02-26T20:50:45.850Z,4.80
2023-02-26T20:53:33.332Z,6.47
2023-02-26T20:56:20.897Z,6.73
2023-02-26T20:59:09.536Z,5.97
2023-02-26T21:01:57.228Z,5.67
2023-02-26T21:04:44.592Z,7.13
2023-02-26T21:07:32.050Z,10.03
2023-02-26T21:10:19.825Z,3.87
2023-02-26T21:13:08.121Z,6.77
2023-02-26T21:15:57.137Z,7.10
2023-02-26T21:18:44.661Z,7.87
2023-02-26T21:21:32.469Z,6.60
2023-02-26T21:24:20.024Z,7.83
2023-02-26T21:27:07.436Z,5.63
2023-02-26T21:29:54.809Z,7.53
2023-02-26T21:32:42.305Z,5.07
2023-02-26T21:35:29.934Z,7.57
2023-02-26T21:38:18.736Z,4.27
2023-02-26T21:41:06.849Z,4.30
2023-02-26T21:43:54.200Z,6.87
2023-02-26T21:46:41.568Z,5.47
2023-02-26T21:49:30.834Z,6.83
2023-02-26T21:52:18.371Z,4.33
2023-02-26T21:55:06.064Z,5.07
2023-02-26T21:57:53.424Z,8.40
2023-02-26T22:00:40.784Z,4.40
2023-02-26T22:03:28.180Z,6.43
2023-02-26T22:06:15.546Z,6.97
2023-02-26T22:09:03.164Z,6.03
2023-02-26T22:11:50.585Z,6.60
2023-02-26T22:14:38.008Z,4.73
2023-02-26T22:17:25.570Z,5.87
2023-02-26T22:20:14.034Z,5.67
2023-02-26T22:23:02.451Z,7.10
2023-02-26T22:25:50.011Z,7.93
2023-02-26T22:28:37.370Z,7.07
2023-02-26T22:31:25.131Z,4.73
2023-02-26T22:34:12.749Z,5.93
2023-02-26T22:37:00.401Z,5.83
2023-02-26T22:39:47.826Z,7.17
2023-02-26T22:42:35.180Z,5.20
2023-02-26T22:45:22.575Z,4.63
2023-02-26T22:48:10.008Z,5.93
2023-02-26T22:50:58.328Z,5.83
2023-02-26T22:53:45.994Z,6.33
2023-02-26T22:56:33.386Z,5.67
2023-02-26T22:59:20.828Z,5.20
2023-02-26T23:02:08.286Z,5.63
2023-02-26T23:04:55.638Z,4.53
2023-02-26T23:07:43.452Z,6.13
2023-02-26T23:10:30.816Z,6.10
2023-02-26T23:13:18.360Z,6.83
2023-02-26T23:16:07.079Z,5.90
2023-02-26T23:18:54.470Z,4.37
2023-02-26T23:21:41.819Z,9.00
2023-02-26T23:24:29.185Z,5.03
2023-02-26T23:27:16.651Z,3.73
2023-02-26T23:30:04.130Z,6.50
2023-02-26T23:32:51.499Z,7.23
2023-02-26T23:35:39.280Z,4.90
2023-02-26T23:38:26.771Z,8.03
2023-02-26T23:41:14.182Z,6.43
2023-02-26T23:44:01.540Z,5.53
2023-02-26T23:46:49.327Z,4.13
2023-02-26T23:49:36.760Z,5.77
2023-02-26T23:52:25.591Z,5.13
2023-02-26T23:55:13.600Z,6.50
2023-02-26T23:58:01.183Z,4.80
